createdAt,value
2019-06-01T00:04:13.158Z,19.40
2019-06-01T00:09:04.063Z,19.00
2019-06-01T00:13:54.998Z,18.60
2019-06-01T00:18:46.057Z,18.20
2019-06-01T00:23:36.814Z,18.30
2019-06-01T00:28:27.785Z,19.00
2019-06-01T00:33:18.798Z,19.20
2019-06-01T00:38:09.807Z,18.70
2019-06-01T00:43:00.725Z,18.20
2019-06-01T00:47:52.989Z,17.70
2019-06-01T00:52:43.484Z,17.70
2019-06-01T00:57:34.418Z,18.40
2019-06-01T01:02:25.327Z,18.70
2019-06-01T01:07:16.254Z,18.30
2019-06-01T01:12:07.159Z,17.90
2019-06-01T01:16:58.092Z,17.50
2019-06-01T01:21:49.930Z,17.30
2019-06-01T01:26:40.027Z,18.00
2019-06-01T01:31:30.928Z,18.40
2019-06-01T01:36:21.960Z,18.00
2019-06-01T01:41:12.886Z,17.60
2019-06-01T01:46:03.905Z,17.20
2019-06-01T01:50:54.824Z,16.90
2019-06-01T01:55:45.736Z,17.50
2019-06-01T02:00:36.639Z,18.00
2019-06-01T02:05:27.550Z,17.70
2019-06-01T02:10:18.452Z,17.30
2019-06-01T02:15:09.412Z,16.90
2019-06-01T02:20:00.328Z,16.60
2019-06-01T02:24:51.280Z,17.10
2019-06-01T02:29:42.935Z,17.40
2019-06-01T02:34:34.632Z,17.00
2019-06-01T02:39:25.656Z,17.00
2019-06-01T02:44:16.571Z,16.60
2019-06-01T02:49:07.608Z,16.40
2019-06-01T02:53:59.612Z,17.40
2019-06-01T02:58:50.998Z,17.20
2019-06-01T03:03:42.692Z,16.70
2019-06-01T03:08:33.631Z,16.70
2019-06-01T03:13:24.525Z,16.40
2019-06-01T03:18:15.419Z,16.10
2019-06-01T03:23:06.318Z,16.40
2019-06-01T03:27:57.282Z,17.10
2019-06-01T03:32:48.227Z,17.00
2019-06-01T03:37:39.115Z,16.60
2019-06-01T03:42:30.008Z,16.20
2019-06-01T03:47:20.967Z,16.00
2019-06-01T03:52:13.023Z,16.00
2019-06-01T03:57:03.758Z,16.90
2019-06-01T04:01:54.665Z,16.60
2019-06-01T04:06:45.706Z,16.50
2019-06-01T04:11:37.360Z,16.00
2019-06-01T04:16:28.333Z,16.00
2019-06-01T04:21:19.244Z,15.90
2019-06-01T04:26:10.372Z,16.80
2019-06-01T04:31:02.267Z,17.30
2019-06-01T04:35:52.191Z,17.10
2019-06-01T04:40:43.098Z,16.80
2019-06-01T04:45:33.991Z,16.60
2019-06-01T04:50:24.891Z,16.50
2019-06-01T04:55:16.546Z,17.80
2019-06-01T05:00:15.329Z,17.80
2019-06-01T05:04:58.509Z,17.80
2019-06-01T05:09:49.537Z,17.50
2019-06-01T05:14:40.556Z,17.40
2019-06-01T05:19:31.574Z,17.20
2019-06-01T05:24:22.582Z,17.70
2019-06-01T05:29:13.574Z,18.50
2019-06-01T05:34:04.411Z,18.60
2019-06-01T05:38:55.345Z,18.30
2019-06-01T05:43:46.263Z,18.10
2019-06-01T05:48:37.184Z,18.00
2019-06-01T05:53:28.101Z,18.30
2019-06-01T05:58:19.705Z,19.10
2019-06-01T06:03:12.842Z,19.20
2019-06-01T06:08:01.618Z,18.70
2019-06-01T06:12:52.523Z,18.70
2019-06-01T06:17:44.175Z,18.80
2019-06-01T06:22:35.097Z,18.80
2019-06-01T06:27:26.003Z,19.50
2019-06-01T06:32:17.291Z,19.80
2019-06-01T06:37:07.995Z,19.60
2019-06-01T06:41:58.937Z,19.40
2019-06-01T06:46:49.949Z,19.30
2019-06-01T06:51:40.847Z,19.30
2019-06-01T06:56:31.789Z,19.90
2019-06-01T07:01:22.959Z,20.60
2019-06-01T07:06:14.090Z,20.50
2019-06-01T07:11:05.008Z,20.30
2019-06-01T07:15:55.962Z,20.20
2019-06-01T07:20:46.901Z,20.20
2019-06-01T07:25:37.820Z,20.60
2019-06-01T07:30:28.853Z,21.30
2019-06-01T07:35:20.509Z,21.60
2019-06-01T07:40:13.625Z,21.40
2019-06-01T07:45:04.479Z,21.40
2019-06-01T07:49:56.218Z,21.60
2019-06-01T07:55:02.927Z,22.40
2019-06-01T07:59:54.030Z,22.40
2019-06-01T08:04:53.791Z,22.60
2019-06-01T08:09:36.772Z,22.50
2019-06-01T08:14:28.632Z,22.50
2019-06-01T08:19:18.605Z,22.40
2019-06-01T08:24:09.642Z,22.80
2019-06-01T08:29:01.394Z,23.60
2019-06-01T08:33:53.108Z,23.40
2019-06-01T08:38:44.828Z,23.30
2019-06-01T08:43:35.764Z,23.20
2019-06-01T08:48:27.716Z,23.10
2019-06-01T08:53:17.802Z,23.40
2019-06-01T08:58:08.815Z,24.00
2019-06-01T09:03:14.719Z,24.00
2019-06-01T09:08:06.489Z,23.50
2019-06-01T09:12:57.446Z,23.50
2019-06-01T09:17:48.346Z,23.40
2019-06-01T09:22:39.288Z,23.70
2019-06-01T09:27:30.308Z,24.20
2019-06-01T09:32:21.238Z,24.30
2019-06-01T09:37:12.251Z,24.10
2019-06-01T09:42:03.269Z,23.80
2019-06-01T09:46:54.288Z,23.80
2019-06-01T09:51:45.203Z,24.20
2019-06-01T09:56:37.810Z,24.80
2019-06-01T10:01:28.157Z,24.60
2019-06-01T10:06:18.779Z,24.60
2019-06-01T10:11:09.679Z,24.40
2019-06-01T10:16:00.595Z,24.30
2019-06-01T10:20:52.359Z,25.30
2019-06-01T10:25:43.289Z,25.30
2019-06-01T10:30:34.184Z,25.30
2019-06-01T10:35:25.095Z,25.00
2019-06-01T10:40:16.047Z,24.80
2019-06-01T10:45:07.703Z,25.30
2019-06-01T10:49:59.342Z,25.90
2019-06-01T10:54:51.079Z,25.90
2019-06-01T10:59:42.630Z,25.90
2019-06-01T11:04:32.922Z,25.70
2019-06-01T11:09:24.020Z,25.50
2019-06-01T11:14:15.688Z,26.10
2019-06-01T11:19:06.664Z,26.10
2019-06-01T11:23:57.607Z,26.90
2019-06-01T11:28:49.258Z,27.00
2019-06-01T11:33:40.218Z,27.00
2019-06-01T11:38:31.112Z,27.10
2019-06-01T11:43:22.022Z,27.20
2019-06-01T11:48:12.991Z,27.80
2019-06-01T11:53:04.008Z,28.60
2019-06-01T11:57:55.040Z,28.90
2019-06-01T12:02:46.862Z,29.10
2019-06-01T12:07:37.783Z,29.00
2019-06-01T12:12:29.423Z,30.10
2019-06-01T12:17:20.447Z,30.10
2019-06-01T12:22:12.290Z,31.10
2019-06-01T12:27:03.199Z,31.10
2019-06-01T12:31:54.112Z,31.20
2019-06-01T12:36:46.282Z,31.30
2019-06-01T12:41:35.957Z,31.60
2019-06-01T12:46:27.616Z,32.90
2019-06-01T12:51:19.339Z,33.20
2019-06-01T12:56:10.256Z,33.10
2019-06-01T13:01:02.859Z,33.10
2019-06-01T13:05:52.900Z,33.20
2019-06-01T13:10:45.056Z,33.20
2019-06-01T13:15:35.563Z,34.00
2019-06-01T13:20:26.576Z,34.00
2019-06-01T13:25:17.515Z,34.20
2019-06-01T13:30:08.426Z,34.00
2019-06-01T13:34:59.336Z,33.70
2019-06-01T13:39:56.001Z,33.60
2019-06-01T13:44:41.180Z,33.80
2019-06-01T13:49:32.099Z,34.00
2019-06-01T13:54:23.128Z,34.10
2019-06-01T13:59:14.034Z,33.80
2019-06-01T14:04:04.939Z,33.50
2019-06-01T14:08:55.830Z,33.40
2019-06-01T14:13:47.460Z,33.60
2019-06-01T14:18:37.719Z,34.00
2019-06-01T14:23:28.740Z,34.30
2019-06-01T14:28:19.760Z,34.30
2019-06-01T14:33:10.667Z,34.00
2019-06-01T14:38:01.660Z,33.70
2019-06-01T14:42:53.635Z,33.70
2019-06-01T14:47:43.531Z,34.00
2019-06-01T14:52:35.262Z,34.30
2019-06-01T14:57:25.362Z,34.50
2019-06-01T15:02:16.265Z,34.30
2019-06-01T15:07:07.190Z,33.90
2019-06-01T15:11:58.770Z,33.70
2019-06-01T15:16:49.576Z,33.80
2019-06-01T15:21:40.059Z,34.10
2019-06-01T15:26:30.993Z,34.30
2019-06-01T15:31:22.006Z,34.20
2019-06-01T15:36:12.919Z,33.70
2019-06-01T15:41:03.955Z,33.30
2019-06-01T15:45:55.370Z,33.00
2019-06-01T15:50:45.881Z,33.20
2019-06-01T15:55:36.794Z,33.30
2019-06-01T16:00:27.725Z,33.30
2019-06-01T16:05:18.627Z,32.80
2019-06-01T16:10:09.560Z,32.20
2019-06-01T16:15:02.021Z,31.70
2019-06-01T16:19:51.384Z,31.70
2019-06-01T16:24:42.291Z,31.80
2019-06-01T16:29:33.191Z,32.00
2019-06-01T16:34:24.143Z,31.70
2019-06-01T16:39:15.044Z,31.20
2019-06-01T16:44:05.979Z,30.70
2019-06-01T16:48:57.467Z,30.30
2019-06-01T16:53:48.027Z,30.60
2019-06-01T16:58:38.952Z,30.80
2019-06-01T17:03:29.859Z,30.80
2019-06-01T17:08:20.763Z,30.30
2019-06-01T17:13:11.658Z,29.70
2019-06-01T17:18:06.176Z,29.30
2019-06-01T17:22:53.552Z,29.50
2019-06-01T17:27:44.488Z,29.80
2019-06-01T17:32:36.148Z,29.50
2019-06-01T17:37:27.055Z,29.50
2019-06-01T17:42:17.954Z,28.90
2019-06-01T17:47:09.602Z,28.40
2019-06-01T17:52:01.878Z,28.80
2019-06-01T17:56:52.288Z,28.80
2019-06-01T18:01:43.249Z,29.10
2019-06-01T18:06:34.147Z,28.80
2019-06-01T18:11:25.078Z,28.20
2019-06-01T18:16:16.028Z,27.70
2019-06-01T18:21:08.401Z,27.90
2019-06-01T18:25:58.612Z,27.90
2019-06-01T18:30:49.520Z,28.20
2019-06-01T18:35:40.423Z,28.00
2019-06-01T18:40:32.050Z,26.90
2019-06-01T18:45:23.756Z,26.60
2019-06-01T18:50:17.328Z,26.50
2019-06-01T18:55:06.425Z,27.00
2019-06-01T18:59:57.286Z,27.30
2019-06-01T19:04:48.265Z,27.20
2019-06-01T19:09:39.185Z,26.70
2019-06-01T19:14:30.191Z,26.10
2019-06-01T19:19:21.116Z,25.60
2019-06-01T19:24:12.639Z,25.80
2019-06-01T19:29:03.762Z,26.20
2019-06-01T19:33:54.659Z,26.10
2019-06-01T19:38:45.598Z,25.60
2019-06-01T19:43:36.517Z,25.00
2019-06-01T19:48:27.455Z,24.50
2019-06-01T19:53:18.913Z,24.50
2019-06-01T19:58:09.971Z,25.00
2019-06-01T20:03:01.072Z,24.60
2019-06-01T20:07:51.983Z,24.60
2019-06-01T20:12:42.893Z,24.00
2019-06-01T20:17:34.586Z,23.30
2019-06-01T20:22:26.378Z,23.70
2019-06-01T20:27:17.519Z,23.70
2019-06-01T20:32:08.214Z,24.00
2019-06-01T20:36:59.907Z,23.10
2019-06-01T20:41:50.810Z,23.10
2019-06-01T20:46:41.719Z,22.60
2019-06-01T20:51:32.622Z,22.30
2019-06-01T20:56:23.614Z,22.70
2019-06-01T21:01:15.591Z,23.10
2019-06-01T21:06:06.257Z,22.30
2019-06-01T21:10:57.162Z,22.20
2019-06-01T21:15:48.090Z,21.80
2019-06-01T21:20:39.083Z,21.40
2019-06-01T21:25:30.012Z,21.60
2019-06-01T21:30:22.640Z,22.10
2019-06-01T21:35:11.842Z,22.20
2019-06-01T21:40:05.722Z,21.60
2019-06-01T21:44:56.663Z,21.10
2019-06-01T21:49:47.572Z,20.70
2019-06-01T21:54:38.497Z,20.70
2019-06-01T21:59:29.410Z,21.30
2019-06-01T22:04:20.803Z,21.50
2019-06-01T22:09:12.066Z,20.60
2019-06-01T22:14:02.975Z,20.50
2019-06-01T22:18:53.912Z,20.20
2019-06-01T22:23:44.928Z,19.90
2019-06-01T22:28:35.839Z,20.40
2019-06-01T22:33:26.739Z,20.80
2019-06-01T22:38:17.647Z,20.60
2019-06-01T22:43:08.608Z,20.10
2019-06-01T22:47:59.519Z,19.60
2019-06-01T22:52:51.272Z,19.60
2019-06-01T22:57:43.239Z,19.50
2019-06-01T23:02:33.202Z,20.10
2019-06-01T23:07:25.104Z,20.10
2019-06-01T23:12:15.240Z,19.60
2019-06-01T23:17:06.156Z,19.20
2019-06-01T23:21:57.078Z,18.80
2019-06-01T23:26:47.990Z,18.70
2019-06-01T23:31:38.918Z,19.40
2019-06-01T23:36:30.687Z,19.70
2019-06-01T23:41:20.756Z,19.30
2019-06-01T23:46:11.654Z,18.90
2019-06-01T23:51:02.584Z,18.50
2019-06-01T23:55:53.508Z,18.20
